createdAt,value
2017-04-12T00:00:15.977Z,0
2017-04-12T00:01:26.199Z,0
2017-04-12T00:02:36.171Z,0
2017-04-12T00:03:46.157Z,0
2017-04-12T00:04:56.443Z,0
2017-04-12T00:06:06.416Z,0
2017-04-12T00:07:16.944Z,0
2017-04-12T00:08:26.613Z,0
2017-04-12T00:09:36.918Z,0
2017-04-12T00:10:46.917Z,0
2017-04-12T00:11:57.206Z,0
2017-04-12T00:13:07.746Z,0
2017-04-12T00:14:18.233Z,0
2017-04-12T00:15:28.217Z,0
2017-04-12T00:16:38.503Z,0
2017-04-12T00:17:48.816Z,0
2017-04-12T00:18:59.361Z,0
2017-04-12T00:20:09.648Z,0
2017-04-12T00:21:19.630Z,0
2017-04-12T00:22:29.914Z,0
2017-04-12T00:23:39.896Z,0
2017-04-12T00:24:50.438Z,0
2017-04-12T00:26:00.728Z,0
2017-04-12T00:27:10.699Z,0
2017-04-12T00:28:20.999Z,0
2017-04-12T00:29:30.970Z,0
2017-04-12T00:30:41.504Z,0
2017-04-12T00:31:51.794Z,0
2017-04-12T00:33:01.777Z,0
2017-04-12T00:34:12.059Z,0
2017-04-12T00:35:22.028Z,0
2017-04-12T00:36:32.304Z,0
2017-04-12T00:37:42.584Z,0
2017-04-12T00:38:52.873Z,0
2017-04-12T00:40:03.160Z,0
2017-04-12T00:41:13.126Z,0
2017-04-12T00:42:23.655Z,0
2017-04-12T00:43:33.948Z,0
2017-04-12T00:44:43.922Z,0
2017-04-12T00:45:54.208Z,0
2017-04-12T00:47:04.180Z,0
2017-04-12T00:48:14.720Z,0
2017-04-12T00:49:24.709Z,0
2017-04-12T00:50:34.987Z,0
2017-04-12T00:51:44.671Z,0
2017-04-12T00:52:54.958Z,0
2017-04-12T00:54:05.482Z,0
2017-04-12T00:55:15.460Z,0
2017-04-12T00:56:25.767Z,0
2017-04-12T00:57:36.047Z,0
2017-04-12T00:58:46.330Z,0
2017-04-12T00:59:56.934Z,0
2017-04-12T01:01:07.215Z,0
2017-04-12T01:02:17.193Z,0
2017-04-12T01:03:27.494Z,0
2017-04-12T01:04:37.792Z,0
2017-04-12T01:05:48.320Z,0
2017-04-12T01:06:58.339Z,0
2017-04-12T01:08:08.327Z,0
2017-04-12T01:09:18.615Z,0
2017-04-12T01:10:28.911Z,0
2017-04-12T01:11:39.136Z,0
2017-04-12T01:12:49.421Z,0
2017-04-12T01:13:59.707Z,0
2017-04-12T01:15:10.007Z,0
2017-04-12T01:16:19.674Z,0
2017-04-12T01:17:30.220Z,0
2017-04-12T01:18:40.512Z,0
2017-04-12T01:19:50.873Z,0
2017-04-12T01:21:00.547Z,0
2017-04-12T01:22:10.829Z,0
2017-04-12T01:23:21.373Z,0
2017-04-12T01:24:31.340Z,0
2017-04-12T01:25:41.642Z,0
2017-04-12T01:26:51.936Z,0
2017-04-12T01:28:02.267Z,0
2017-04-12T01:29:12.851Z,0
2017-04-12T01:30:23.147Z,0
2017-04-12T01:31:33.126Z,0
2017-04-12T01:32:43.409Z,0
2017-04-12T01:33:53.908Z,0
2017-04-12T01:35:04.524Z,0
2017-04-12T01:36:14.831Z,0
2017-04-12T01:37:25.125Z,0
2017-04-12T01:38:35.100Z,0
2017-04-12T01:39:45.090Z,0
2017-04-12T01:40:55.364Z,0
2017-04-12T01:42:05.333Z,0
2017-04-12T01:43:15.611Z,0
2017-04-12T01:44:25.301Z,0
2017-04-12T01:45:35.581Z,0
2017-04-12T01:46:46.112Z,0
2017-04-12T01:47:56.469Z,0
2017-04-12T01:49:06.748Z,0
2017-04-12T01:50:17.133Z,0
2017-04-12T01:51:27.138Z,0
2017-04-12T01:52:37.422Z,0
2017-04-12T01:53:47.397Z,0
2017-04-12T01:54:57.677Z,0
2017-04-12T01:56:07.664Z,0
2017-04-12T01:57:17.954Z,0
2017-04-12T01:58:28.534Z,0
2017-04-12T01:59:38.814Z,0
2017-04-12T02:00:49.112Z,0
2017-04-12T02:01:59.166Z,0
2017-04-12T02:03:09.148Z,0
2017-04-12T02:04:19.704Z,0
2017-04-12T02:05:29.998Z,0
2017-04-12T02:06:39.965Z,0
2017-04-12T02:07:50.254Z,0
2017-04-12T02:09:00.584Z,0
2017-04-12T02:10:10.835Z,0
2017-04-12T02:11:21.119Z,0
2017-04-12T02:12:31.406Z,0
2017-04-12T02:13:41.684Z,0
2017-04-12T02:14:51.651Z,0
2017-04-12T02:16:02.180Z,0
2017-04-12T02:17:12.464Z,0
2017-04-12T02:18:22.751Z,0
2017-04-12T02:19:33.036Z,0
2017-04-12T02:20:43.004Z,0
2017-04-12T02:21:53.553Z,0
2017-04-12T02:23:03.837Z,0
2017-04-12T02:24:13.838Z,0
2017-04-12T02:25:23.806Z,0
2017-04-12T02:26:34.085Z,0
2017-04-12T02:27:44.619Z,0
2017-04-12T02:28:54.910Z,0
2017-04-12T02:30:05.248Z,0
2017-04-12T02:31:15.230Z,0
2017-04-12T02:32:25.524Z,0
2017-04-12T02:33:36.059Z,0
2017-04-12T02:34:45.713Z,0
2017-04-12T02:35:55.062Z,0
2017-04-12T02:37:05.343Z,0
2017-04-12T02:38:15.631Z,0
2017-04-12T02:39:26.175Z,0
2017-04-12T02:40:36.456Z,0
2017-04-12T02:41:46.753Z,0
2017-04-12T02:42:57.046Z,0
2017-04-12T02:52:10.347Z,0
2017-04-12T02:53:20.324Z,0
2017-04-12T02:54:30.601Z,0
2017-04-12T02:55:40.886Z,0
2017-04-12T02:56:51.310Z,0
2017-04-12T02:58:01.228Z,0
2017-04-12T02:59:11.707Z,0
2017-04-12T03:00:21.684Z,0
2017-04-12T03:01:31.975Z,0
2017-04-12T03:02:42.264Z,0
2017-04-12T03:03:52.801Z,0
2017-04-12T03:05:03.284Z,0
2017-04-12T03:06:13.253Z,0
2017-04-12T03:07:23.220Z,0
2017-04-12T03:08:33.513Z,0
2017-04-12T03:09:43.729Z,0
2017-04-12T03:10:54.014Z,0
2017-04-12T03:12:03.980Z,0
2017-04-12T03:13:14.020Z,0
2017-04-12T03:14:24.312Z,0
2017-04-12T03:15:34.840Z,0
2017-04-12T03:16:45.121Z,0
2017-04-12T03:17:55.143Z,0
2017-04-12T03:19:05.124Z,0
2017-04-12T03:20:15.090Z,0
2017-04-12T03:21:25.621Z,0
2017-04-12T03:22:35.601Z,0
2017-04-12T03:23:45.876Z,0
2017-04-12T03:24:55.858Z,0
2017-04-12T03:26:05.827Z,0
2017-04-12T03:27:16.368Z,0
2017-04-12T03:28:26.656Z,0
2017-04-12T03:29:36.948Z,0
2017-04-12T03:30:47.229Z,0
2017-04-12T03:31:57.576Z,0
2017-04-12T03:33:07.843Z,0
2017-04-12T03:34:17.861Z,0
2017-04-12T03:35:28.140Z,0
2017-04-12T03:36:38.416Z,0
2017-04-12T03:37:48.704Z,0
2017-04-12T03:38:59.298Z,0
2017-04-12T03:40:09.605Z,0
2017-04-12T03:41:19.892Z,0
2017-04-12T03:42:30.174Z,0
2017-04-12T03:43:40.463Z,0
2017-04-12T03:44:50.993Z,0
2017-04-12T03:46:01.290Z,0
2017-04-12T03:47:11.573Z,0
2017-04-12T03:48:21.866Z,0
2017-04-12T03:49:32.171Z,0
2017-04-12T03:50:42.716Z,0
2017-04-12T03:51:53.012Z,0
2017-04-12T03:53:03.322Z,0
2017-04-12T03:54:13.670Z,0
2017-04-12T03:55:23.965Z,0
2017-04-12T03:56:34.503Z,0
2017-04-12T03:57:44.681Z,0
2017-04-12T03:58:54.972Z,0
2017-04-12T04:00:05.253Z,0
2017-04-12T04:01:14.926Z,0
2017-04-12T04:02:25.460Z,0
2017-04-12T04:03:35.445Z,0
2017-04-12T04:04:45.729Z,0
2017-04-12T04:05:56.019Z,0
2017-04-12T04:07:06.001Z,0
2017-04-12T04:08:16.540Z,0
2017-04-12T04:09:26.841Z,0
2017-04-12T04:10:37.128Z,0
2017-04-12T04:11:47.520Z,0
2017-04-12T04:12:57.812Z,0
2017-04-12T04:14:08.362Z,0
2017-04-12T04:15:18.647Z,0
2017-04-12T04:16:28.621Z,0
2017-04-12T04:17:38.902Z,0
2017-04-12T04:18:48.879Z,0
2017-04-12T04:19:59.421Z,0
2017-04-12T04:21:09.714Z,0
2017-04-12T04:22:19.998Z,0
2017-04-12T04:23:29.973Z,0
2017-04-12T04:24:40.273Z,0
2017-04-12T04:25:50.810Z,0
2017-04-12T04:27:01.101Z,0
2017-04-12T04:28:11.389Z,0
2017-04-12T04:29:21.676Z,0
2017-04-12T04:30:31.975Z,0
2017-04-12T04:31:42.504Z,0
2017-04-12T04:32:52.787Z,0
2017-04-12T04:34:03.086Z,0
2017-04-12T04:35:13.405Z,5
2017-04-12T04:36:23.378Z,5
2017-04-12T04:37:33.281Z,5
2017-04-12T04:38:43.569Z,5
2017-04-12T04:39:53.233Z,5
2017-04-12T04:41:03.515Z,5
2017-04-12T04:42:13.966Z,5
2017-04-12T04:43:24.201Z,5
2017-04-12T04:44:34.467Z,5
2017-04-12T04:45:44.779Z,10
2017-04-12T04:46:55.058Z,5
2017-04-12T04:48:05.620Z,5
2017-04-12T04:49:16.417Z,5
2017-04-12T04:50:26.728Z,10
2017-04-12T04:51:36.872Z,10
2017-04-12T04:52:47.183Z,10
2017-04-12T04:53:57.473Z,5
2017-04-12T04:55:08.149Z,5
2017-04-12T04:56:18.124Z,5
2017-04-12T04:57:28.409Z,5
2017-04-12T04:58:38.378Z,5
2017-04-12T04:59:48.669Z,5
2017-04-12T05:00:58.940Z,10
2017-04-12T05:02:09.218Z,10
2017-04-12T05:03:19.499Z,10
2017-04-12T05:04:29.476Z,10
2017-04-12T05:05:39.459Z,10
2017-04-12T05:06:49.728Z,10
2017-04-12T05:08:00.008Z,15
2017-04-12T05:09:10.294Z,15
2017-04-12T05:10:19.976Z,15
2017-04-12T05:11:30.251Z,10
2017-04-12T05:12:40.798Z,10
2017-04-12T05:13:51.117Z,15
2017-04-12T05:15:01.086Z,15
2017-04-12T05:16:11.091Z,15
2017-04-12T05:17:21.375Z,10
2017-04-12T05:18:31.639Z,15
2017-04-12T05:19:41.930Z,15
2017-04-12T05:20:51.606Z,10
2017-04-12T05:22:01.584Z,10
2017-04-12T05:23:11.560Z,15
2017-04-12T05:24:21.783Z,10
2017-04-12T05:25:31.786Z,15
2017-04-12T05:26:42.085Z,15
2017-04-12T05:27:52.390Z,10
2017-04-12T05:29:02.669Z,10
2017-04-12T05:30:12.942Z,10
2017-04-12T05:31:23.226Z,10
2017-04-12T05:32:33.207Z,10
2017-04-12T05:33:43.494Z,15
2017-04-12T05:34:53.797Z,10
2017-04-12T05:36:04.328Z,10
2017-04-12T05:37:14.604Z,10
2017-04-12T05:38:24.591Z,10
2017-04-12T05:39:34.560Z,15
2017-04-12T05:40:45.067Z,15
2017-04-12T05:41:55.672Z,15
2017-04-12T05:43:05.985Z,15
2017-04-12T05:44:15.956Z,15
2017-04-12T05:45:26.229Z,20
2017-04-12T05:46:36.521Z,20
2017-04-12T05:47:46.758Z,25
2017-04-12T05:48:57.063Z,25
2017-04-12T05:50:07.349Z,25
2017-04-12T05:51:17.647Z,25
2017-04-12T05:52:27.934Z,20
2017-04-12T05:53:38.161Z,25
2017-04-12T05:54:48.463Z,30
2017-04-12T05:55:58.757Z,30
2017-04-12T05:57:09.037Z,20
2017-04-12T05:58:18.714Z,25
2017-04-12T05:59:29.268Z,20
2017-04-12T06:00:38.941Z,25
2017-04-12T06:01:49.245Z,30
2017-04-12T06:02:58.916Z,35
2017-04-12T06:04:09.201Z,40
2017-04-12T06:05:19.439Z,40
2017-04-12T06:06:29.431Z,30
2017-04-12T06:07:39.727Z,25
2017-04-12T06:08:50.020Z,30
2017-04-12T06:09:59.996Z,25
2017-04-12T06:11:10.277Z,20
2017-04-12T06:12:20.606Z,25
2017-04-12T06:13:30.604Z,25
2017-04-12T06:14:40.897Z,20
2017-04-12T06:15:51.183Z,20
2017-04-12T06:17:01.727Z,25
2017-04-12T06:18:12.047Z,25
2017-04-12T06:19:22.349Z,25
2017-04-12T06:20:32.633Z,20
2017-04-12T06:21:42.940Z,25
2017-04-12T06:22:53.531Z,30
2017-04-12T06:24:03.823Z,50
2017-04-12T06:25:13.813Z,60
2017-04-12T06:26:24.107Z,55
2017-04-12T06:27:34.417Z,65
2017-04-12T06:28:44.958Z,55
2017-04-12T06:29:54.996Z,40
2017-04-12T06:31:05.293Z,45
2017-04-12T06:32:15.588Z,30
2017-04-12T06:33:25.869Z,30
2017-04-12T06:34:36.095Z,25
2017-04-12T06:35:46.059Z,30
2017-04-12T06:36:56.038Z,30
2017-04-12T06:38:06.021Z,30
2017-04-12T06:39:16.304Z,25
2017-04-12T06:40:26.854Z,30
2017-04-12T06:41:37.342Z,40
2017-04-12T06:42:47.349Z,30
2017-04-12T06:43:57.642Z,25
2017-04-12T06:45:07.938Z,25
2017-04-12T06:46:18.522Z,35
2017-04-12T06:47:28.490Z,45
2017-04-12T06:48:38.777Z,50
2017-04-12T06:49:48.760Z,70
2017-04-12T06:50:59.039Z,80
2017-04-12T06:52:09.320Z,80
2017-04-12T06:53:19.612Z,75
2017-04-12T06:54:29.914Z,70
2017-04-12T06:55:40.214Z,65
2017-04-12T06:56:50.527Z,70
2017-04-12T06:58:01.172Z,85
2017-04-12T06:59:11.237Z,100
2017-04-12T07:00:21.563Z,100
2017-04-12T07:01:31.565Z,100
2017-04-12T07:02:41.907Z,95
2017-04-12T07:03:52.140Z,90
2017-04-12T07:05:02.134Z,80
2017-04-12T07:06:12.114Z,80
2017-04-12T07:07:22.407Z,80
2017-04-12T07:08:32.737Z,85
2017-04-12T07:09:43.344Z,95
2017-04-12T07:10:53.641Z,105
2017-04-12T07:12:03.920Z,105
2017-04-12T07:13:14.232Z,105
2017-04-12T07:14:24.216Z,105
2017-04-12T07:15:34.436Z,100
2017-04-12T07:16:44.714Z,115
2017-04-12T07:17:54.689Z,115
2017-04-12T07:19:04.990Z,115
2017-04-12T07:20:15.316Z,115
2017-04-12T07:21:25.920Z,105
2017-04-12T07:22:36.212Z,95
2017-04-12T07:23:46.521Z,90
2017-04-12T07:24:56.815Z,95
2017-04-12T07:26:06.985Z,95
2017-04-12T07:27:17.222Z,95
2017-04-12T07:28:27.539Z,80
2017-04-12T07:29:37.845Z,65
2017-04-12T07:30:48.134Z,55
2017-04-12T07:31:57.809Z,60
2017-04-12T07:33:08.349Z,60
2017-04-12T07:34:18.364Z,85
2017-04-12T07:35:28.363Z,105
2017-04-12T07:36:38.545Z,105
2017-04-12T07:37:48.839Z,110
2017-04-12T07:38:59.380Z,105
2017-04-12T07:40:09.725Z,110
2017-04-12T07:41:20.027Z,105
2017-04-12T07:42:30.320Z,95
2017-04-12T07:43:40.616Z,95
2017-04-12T07:44:51.179Z,95
2017-04-12T07:46:01.158Z,110
2017-04-12T07:47:11.152Z,120
2017-04-12T07:48:21.127Z,125
2017-04-12T07:49:31.133Z,125
2017-04-12T07:50:41.685Z,125
2017-04-12T07:51:51.665Z,135
2017-04-12T07:53:01.954Z,135
2017-04-12T07:54:11.921Z,135
2017-04-12T07:55:22.210Z,135
2017-04-12T07:56:32.438Z,135
2017-04-12T07:57:42.443Z,140
2017-04-12T07:58:52.736Z,140
2017-04-12T08:00:03.030Z,145
2017-04-12T08:01:13.319Z,145
2017-04-12T08:02:23.860Z,135
2017-04-12T08:03:33.847Z,135
2017-04-12T08:04:43.855Z,145
2017-04-12T08:05:53.534Z,140
2017-04-12T08:07:04.119Z,140
2017-04-12T08:08:14.613Z,130
2017-04-12T08:09:24.280Z,110
2017-04-12T08:10:34.202Z,120
2017-04-12T08:11:44.487Z,130
2017-04-12T08:12:54.795Z,120
2017-04-12T08:14:05.334Z,115
2017-04-12T08:15:15.626Z,105
2017-04-12T08:16:25.912Z,110
2017-04-12T08:17:36.200Z,110
2017-04-12T08:18:46.176Z,115
2017-04-12T08:19:56.397Z,100
2017-04-12T08:21:06.375Z,75
2017-04-12T08:22:16.349Z,95
2017-04-12T08:23:26.325Z,120
2017-04-12T08:24:36.612Z,120
2017-04-12T08:25:47.162Z,120
2017-04-12T08:26:57.163Z,120
2017-04-12T08:28:07.457Z,130
2017-04-12T08:29:17.436Z,135
2017-04-12T08:30:27.732Z,150
2017-04-12T08:31:38.285Z,150
2017-04-12T08:32:48.575Z,150
2017-04-12T08:33:58.863Z,150
2017-04-12T08:35:08.536Z,145
2017-04-12T08:36:18.522Z,135
2017-04-12T08:37:28.804Z,135
2017-04-12T08:38:39.098Z,145
2017-04-12T08:39:49.077Z,155
2017-04-12T08:40:59.372Z,145
2017-04-12T08:42:09.658Z,150
2017-04-12T08:43:19.888Z,135
2017-04-12T08:44:29.886Z,120
2017-04-12T08:45:40.184Z,120
2017-04-12T08:46:50.472Z,120
2017-04-12T08:48:00.447Z,115
2017-04-12T08:49:10.992Z,115
2017-04-12T08:50:21.273Z,125
2017-04-12T08:51:30.632Z,150
2017-04-12T08:52:40.602Z,155
2017-04-12T08:53:50.901Z,165
2017-04-12T08:55:01.434Z,170
2017-04-12T08:56:11.101Z,160
2017-04-12T08:57:21.090Z,175
2017-04-12T08:58:31.373Z,180
2017-04-12T08:59:41.034Z,175
2017-04-12T09:00:51.592Z,160
2017-04-12T09:02:01.570Z,130
2017-04-12T09:03:12.088Z,125
2017-04-12T09:04:22.071Z,140
2017-04-12T09:05:32.363Z,95
2017-04-12T09:06:42.949Z,105
2017-04-12T09:07:53.259Z,120
2017-04-12T09:09:03.554Z,135
2017-04-12T09:10:13.841Z,135
2017-04-12T09:11:24.127Z,95
2017-04-12T09:12:34.075Z,100
2017-04-12T09:13:44.426Z,130
2017-04-12T09:14:54.733Z,85
2017-04-12T09:16:05.025Z,60
2017-04-12T09:17:15.329Z,105
2017-04-12T09:18:25.867Z,85
2017-04-12T09:19:36.211Z,130
2017-04-12T09:20:46.189Z,110
2017-04-12T09:21:56.503Z,65
2017-04-12T09:23:06.797Z,90
2017-04-12T09:24:17.350Z,65
2017-04-12T09:25:27.353Z,100
2017-04-12T09:26:37.647Z,105
2017-04-12T09:27:47.644Z,115
2017-04-12T09:28:57.321Z,130
2017-04-12T09:30:07.920Z,125
2017-04-12T09:31:18.211Z,150
2017-04-12T09:32:28.507Z,150
2017-04-12T09:33:38.491Z,130
2017-04-12T09:34:48.797Z,135
2017-04-12T09:35:59.388Z,135
2017-04-12T09:37:09.684Z,155
2017-04-12T09:38:19.986Z,125
2017-04-12T09:39:30.277Z,120
2017-04-12T09:40:39.943Z,125
2017-04-12T09:41:50.503Z,85
2017-04-12T09:43:00.474Z,110
2017-04-12T09:44:10.479Z,145
2017-04-12T09:45:20.480Z,130
2017-04-12T09:46:30.766Z,170
2017-04-12T09:47:41.320Z,155
2017-04-12T09:48:51.310Z,170
2017-04-12T09:50:01.314Z,190
2017-04-12T09:51:10.989Z,185
2017-04-12T09:52:20.985Z,180
2017-04-12T09:53:31.217Z,160
2017-04-12T09:54:41.528Z,135
2017-04-12T09:55:51.535Z,115
2017-04-12T09:57:01.524Z,135
2017-04-12T09:58:11.499Z,130
2017-04-12T09:59:21.721Z,120
2017-04-12T10:00:32.040Z,115
2017-04-12T10:01:42.383Z,125
2017-04-12T10:02:52.696Z,125
2017-04-12T10:04:02.988Z,95
2017-04-12T10:05:13.551Z,85
2017-04-12T10:06:23.852Z,70
2017-04-12T10:07:33.831Z,120
2017-04-12T10:08:44.137Z,115
2017-04-12T10:09:54.123Z,105
2017-04-12T10:11:04.360Z,105
2017-04-12T10:12:14.651Z,75
2017-04-12T10:13:24.900Z,105
2017-04-12T10:14:35.188Z,95
2017-04-12T10:15:45.478Z,75
2017-04-12T10:16:55.760Z,70
2017-04-12T10:18:06.058Z,65
2017-04-12T10:19:16.351Z,90
2017-04-12T10:20:26.340Z,115
2017-04-12T10:21:36.628Z,85
2017-04-12T10:22:47.218Z,85
2017-04-12T10:23:57.517Z,130
2017-04-12T10:25:07.496Z,130
2017-04-12T10:26:17.477Z,100
2017-04-12T10:27:27.767Z,70
2017-04-12T10:28:38.366Z,125
2017-04-12T10:29:48.645Z,115
2017-04-12T10:30:58.936Z,120
2017-04-12T10:32:08.931Z,145
2017-04-12T10:33:18.922Z,165
2017-04-12T10:34:29.484Z,170
2017-04-12T10:35:39.780Z,140
2017-04-12T10:36:50.075Z,115
2017-04-12T10:38:00.045Z,130
2017-04-12T10:39:10.024Z,125
2017-04-12T10:40:20.562Z,120
2017-04-12T10:41:30.539Z,160
2017-04-12T10:42:40.537Z,150
2017-04-12T10:43:51.056Z,125
2017-04-12T10:45:01.485Z,135
2017-04-12T10:46:12.041Z,150
2017-04-12T10:47:22.373Z,145
2017-04-12T10:48:32.429Z,140
2017-04-12T10:49:42.457Z,115
2017-04-12T10:50:52.813Z,140
2017-04-12T10:52:03.442Z,150
2017-04-12T10:53:13.781Z,145
2017-04-12T10:54:23.794Z,160
2017-04-12T10:55:34.174Z,160
2017-04-12T10:56:44.235Z,170
2017-04-12T10:57:55.031Z,185
2017-04-12T10:59:05.340Z,130
2017-04-12T11:00:15.700Z,165
2017-04-12T11:01:25.996Z,200
2017-04-12T11:02:35.976Z,195
2017-04-12T11:03:46.269Z,180
2017-04-12T11:04:56.563Z,150
2017-04-12T11:06:07.062Z,120
2017-04-12T11:07:17.041Z,100
2017-04-12T11:08:27.037Z,100
2017-04-12T11:09:37.581Z,130
2017-04-12T11:10:47.883Z,145
2017-04-12T11:11:57.872Z,195
2017-04-12T11:13:08.194Z,190
2017-04-12T11:14:18.490Z,195
2017-04-12T11:15:29.067Z,165
2017-04-12T11:16:39.369Z,150
2017-04-12T11:17:49.687Z,165
2017-04-12T11:18:59.980Z,145
2017-04-12T11:20:09.982Z,110
2017-04-12T11:21:20.533Z,110
2017-04-12T11:22:30.828Z,100
2017-04-12T11:23:41.128Z,105
2017-04-12T11:24:51.127Z,100
2017-04-12T11:26:00.802Z,95
2017-04-12T11:27:11.340Z,115
2017-04-12T11:28:21.632Z,125
2017-04-12T11:29:31.619Z,135
2017-04-12T11:30:41.909Z,90
2017-04-12T11:31:51.909Z,115
2017-04-12T11:33:02.445Z,110
2017-04-12T11:34:12.174Z,135
2017-04-12T11:35:22.157Z,180
2017-04-12T11:36:32.154Z,185
2017-04-12T11:37:42.476Z,140
2017-04-12T11:38:53.079Z,165
2017-04-12T11:40:03.392Z,145
2017-04-12T11:41:13.699Z,135
2017-04-12T11:42:24.018Z,150
2017-04-12T11:43:34.329Z,180
2017-04-12T11:44:44.879Z,200
2017-04-12T11:45:55.184Z,175
2017-04-12T11:47:05.496Z,125
2017-04-12T11:48:15.477Z,110
2017-04-12T11:49:25.477Z,125
2017-04-12T11:50:35.445Z,110
2017-04-12T11:51:45.408Z,95
2017-04-12T11:52:55.782Z,90
2017-04-12T11:54:06.066Z,125
2017-04-12T11:55:16.364Z,135
2017-04-12T11:56:26.907Z,145
2017-04-12T11:57:36.885Z,115
2017-04-12T11:58:47.168Z,95
2017-04-12T11:59:56.833Z,100
2017-04-12T12:01:07.127Z,85
2017-04-12T12:02:17.676Z,65
2017-04-12T12:03:27.987Z,75
2017-04-12T12:04:37.959Z,85
2017-04-12T12:05:47.631Z,55
2017-04-12T12:06:57.917Z,50
2017-04-12T12:08:08.182Z,55
2017-04-12T12:09:18.483Z,55
2017-04-12T12:10:28.798Z,60
2017-04-12T12:11:38.799Z,80
2017-04-12T12:12:49.095Z,105
2017-04-12T12:13:59.643Z,130
2017-04-12T12:15:10.049Z,135
2017-04-12T12:16:19.722Z,95
2017-04-12T12:17:30.015Z,105
2017-04-12T12:18:40.298Z,140
2017-04-12T12:19:50.926Z,130
2017-04-12T12:21:01.221Z,115
2017-04-12T12:22:11.516Z,115
2017-04-12T12:23:21.803Z,125
2017-04-12T12:24:31.803Z,165
2017-04-12T12:25:42.342Z,165
2017-04-12T12:26:52.643Z,165
2017-04-12T12:28:02.322Z,165
2017-04-12T12:29:12.300Z,170
2017-04-12T12:30:22.288Z,170
2017-04-12T12:31:32.530Z,155
2017-04-12T12:32:42.823Z,175
2017-04-12T12:33:52.817Z,180
2017-04-12T12:35:03.126Z,185
2017-04-12T12:36:12.806Z,0
2017-04-12T12:37:23.047Z,0
2017-04-12T12:38:33.333Z,0
2017-04-12T12:39:43.326Z,0
2017-04-12T12:40:53.634Z,0
2017-04-12T12:42:03.919Z,0
2017-04-12T12:43:14.463Z,0
2017-04-12T12:44:24.452Z,0
2017-04-12T12:45:34.121Z,0
2017-04-12T12:46:44.118Z,0
2017-04-12T12:47:54.403Z,0
2017-04-12T12:49:04.952Z,0
2017-04-12T12:50:16.803Z,0
2017-04-12T12:51:27.095Z,0
2017-04-12T12:52:36.762Z,0
2017-04-12T12:53:47.046Z,0
2017-04-12T12:54:57.320Z,0
2017-04-12T12:56:07.303Z,0
2017-04-12T12:57:17.605Z,0
2017-04-12T12:58:27.921Z,0
2017-04-12T12:59:37.905Z,0
2017-04-12T13:00:48.133Z,0
2017-04-12T13:01:58.116Z,0
2017-04-12T13:03:08.400Z,0
2017-04-12T13:04:18.696Z,0
2017-04-12T13:05:28.689Z,0
2017-04-12T13:06:39.233Z,0
2017-04-12T13:07:49.214Z,0
2017-04-12T13:08:59.499Z,0
2017-04-12T13:10:09.487Z,0
2017-04-12T13:11:19.462Z,0
2017-04-12T13:12:29.691Z,0
2017-04-12T13:13:39.971Z,0
2017-04-12T13:14:50.270Z,0
2017-04-12T13:16:00.597Z,0
2017-04-12T13:17:10.885Z,0
2017-04-12T13:18:21.466Z,0
2017-04-12T13:19:31.752Z,0
2017-04-12T13:20:42.037Z,0
2017-04-12T13:21:52.361Z,0
2017-04-12T13:23:02.342Z,0
2017-04-12T13:24:12.000Z,0
2017-04-12T13:25:22.320Z,0
2017-04-12T13:26:32.296Z,0
2017-04-12T13:27:42.580Z,0
2017-04-12T13:28:52.874Z,0
2017-04-12T13:30:02.795Z,0
2017-04-12T13:31:13.084Z,0
2017-04-12T13:32:23.382Z,0
2017-04-12T13:33:33.682Z,0
2017-04-12T13:34:43.979Z,0
2017-04-12T13:35:54.572Z,0
2017-04-12T13:37:04.905Z,0
2017-04-12T13:38:15.229Z,0
2017-04-12T13:39:25.520Z,0
2017-04-12T13:40:35.805Z,0
2017-04-12T13:41:46.354Z,0
2017-04-12T13:42:56.345Z,0
2017-04-12T13:44:06.836Z,0
2017-04-12T13:45:17.139Z,0
2017-04-12T13:46:27.122Z,0
2017-04-12T13:47:37.727Z,0
2017-04-12T13:48:48.013Z,0
2017-04-12T13:49:58.333Z,0
2017-04-12T13:51:08.629Z,0
2017-04-12T13:52:18.607Z,0
2017-04-12T13:53:29.203Z,0
2017-04-12T13:54:39.497Z,0
2017-04-12T13:55:49.475Z,0
2017-04-12T13:56:59.445Z,0
2017-04-12T13:58:09.740Z,0
2017-04-12T13:59:20.272Z,0
2017-04-12T14:00:30.559Z,0
2017-04-12T14:01:40.541Z,0
2017-04-12T14:02:50.215Z,0
2017-04-12T14:04:00.528Z,0
2017-04-12T14:05:10.758Z,0
2017-04-12T14:06:20.746Z,0
2017-04-12T14:07:31.077Z,0
2017-04-12T14:08:41.079Z,0
2017-04-12T14:09:51.606Z,0
2017-04-12T14:11:01.841Z,0
2017-04-12T14:12:12.127Z,0
2017-04-12T14:13:22.441Z,0
2017-04-12T14:14:32.745Z,0
2017-04-12T14:15:42.750Z,0
2017-04-12T14:16:52.992Z,0
2017-04-12T14:18:02.971Z,0
2017-04-12T14:19:13.272Z,0
2017-04-12T14:20:23.581Z,0
2017-04-12T14:21:33.906Z,0
2017-04-12T14:22:44.460Z,0
2017-04-12T14:23:54.771Z,0
2017-04-12T14:25:04.802Z,0
2017-04-12T14:26:15.095Z,0
2017-04-12T14:27:25.404Z,0
2017-04-12T14:28:35.635Z,0
2017-04-12T14:29:45.939Z,0
2017-04-12T14:30:55.939Z,0
2017-04-12T14:32:05.949Z,0
2017-04-12T14:33:16.245Z,0
2017-04-12T14:34:26.480Z,0
2017-04-12T14:35:36.778Z,0
2017-04-12T14:36:47.071Z,0
2017-04-12T14:37:57.378Z,0
2017-04-12T14:39:07.384Z,0
2017-04-12T14:40:17.952Z,0
2017-04-12T14:41:28.255Z,0
2017-04-12T14:42:38.583Z,0
2017-04-12T14:43:48.591Z,0
2017-04-12T14:44:58.594Z,0
2017-04-12T14:46:09.190Z,0
2017-04-12T14:47:19.518Z,0
2017-04-12T14:48:29.599Z,0
2017-04-12T14:49:39.925Z,0
2017-04-12T14:50:50.259Z,0
2017-04-12T14:52:00.869Z,0
2017-04-12T14:53:10.567Z,0
2017-04-12T14:54:20.893Z,0
2017-04-12T14:55:31.212Z,0
2017-04-12T14:56:41.222Z,0
2017-04-12T14:57:51.836Z,0
2017-04-12T14:59:01.845Z,0
2017-04-12T15:00:12.143Z,0
2017-04-12T15:01:22.501Z,0
2017-04-12T15:02:32.833Z,0
2017-04-12T15:03:43.418Z,0
2017-04-12T15:04:53.776Z,0
2017-04-12T15:06:04.112Z,0
2017-04-12T15:07:14.443Z,0
2017-04-12T15:08:24.758Z,0
2017-04-12T15:09:35.008Z,0
2017-04-12T15:10:44.710Z,0
2017-04-12T15:11:54.711Z,0
2017-04-12T15:13:05.031Z,0
2017-04-12T15:14:15.037Z,0
2017-04-12T15:15:25.275Z,0
2017-04-12T15:16:35.624Z,0
2017-04-12T15:17:45.966Z,0
2017-04-12T15:18:56.319Z,0
2017-04-12T15:20:06.323Z,0
2017-04-12T15:21:16.625Z,0
2017-04-12T15:22:26.644Z,0
2017-04-12T15:23:36.314Z,0
2017-04-12T15:24:46.647Z,0
2017-04-12T15:25:56.343Z,0
2017-04-12T15:27:06.933Z,0
2017-04-12T15:28:16.935Z,0
2017-04-12T15:29:26.976Z,0
2017-04-12T15:30:37.312Z,0
2017-04-12T15:31:47.339Z,0
2017-04-12T15:32:57.936Z,0
2017-04-12T15:34:07.968Z,0
2017-04-12T15:35:18.308Z,0
2017-04-12T15:36:28.625Z,0
2017-04-12T15:37:38.951Z,0
2017-04-12T15:38:49.205Z,0
2017-04-12T15:39:59.216Z,0
2017-04-12T15:41:09.547Z,0
2017-04-12T15:42:19.608Z,0
2017-04-12T15:43:29.919Z,0
2017-04-12T15:44:40.190Z,0
2017-04-12T15:45:50.520Z,0
2017-04-12T15:47:00.230Z,0
2017-04-12T15:48:10.576Z,0
2017-04-12T15:49:20.923Z,0
2017-04-12T15:50:31.579Z,0
2017-04-12T15:51:41.933Z,0
2017-04-12T15:52:51.970Z,0
2017-04-12T15:54:02.297Z,0
2017-04-12T15:55:12.341Z,0
2017-04-12T15:56:22.642Z,0
2017-04-12T15:57:33.012Z,0
2017-04-12T15:58:43.328Z,0
2017-04-12T15:59:53.685Z,0
2017-04-12T16:01:03.724Z,0
2017-04-12T16:02:14.289Z,0
2017-04-12T16:03:24.295Z,0
2017-04-12T16:04:34.302Z,0
2017-04-12T16:05:44.662Z,0
2017-04-12T16:06:54.973Z,0
2017-04-12T16:08:04.934Z,0
2017-04-12T16:09:14.956Z,0
2017-04-12T16:10:24.980Z,0
2017-04-12T16:11:35.308Z,0
2017-04-12T16:12:45.336Z,0
2017-04-12T16:13:55.923Z,0
2017-04-12T16:15:05.930Z,0
2017-04-12T16:16:15.962Z,0
2017-04-12T16:17:26.327Z,0
2017-04-12T16:18:36.891Z,0
2017-04-12T16:19:47.466Z,0
2017-04-12T16:20:57.170Z,0
2017-04-12T16:22:07.509Z,0
2017-04-12T16:23:17.826Z,0
2017-04-12T16:24:28.140Z,0
2017-04-12T16:25:38.473Z,0
2017-04-12T16:26:48.826Z,0
2017-04-12T16:27:59.134Z,0
2017-04-12T16:29:09.819Z,0
2017-04-12T16:30:19.837Z,0
2017-04-12T16:31:30.453Z,0
2017-04-12T16:32:40.499Z,0
2017-04-12T16:33:50.873Z,0
2017-04-12T16:35:01.188Z,0
2017-04-12T16:36:10.899Z,0
2017-04-12T16:37:21.470Z,0
2017-04-12T16:38:31.475Z,0
2017-04-12T16:39:41.502Z,0
2017-04-12T16:40:51.220Z,0
2017-04-12T16:42:00.625Z,0
2017-04-12T16:43:11.222Z,0
2017-04-12T16:44:21.255Z,0
2017-04-12T16:45:31.285Z,0
2017-04-12T16:46:41.629Z,0
2017-04-12T16:47:51.955Z,0
2017-04-12T16:49:02.569Z,0
2017-04-12T16:50:12.964Z,0
2017-04-12T16:51:23.024Z,0
2017-04-12T16:52:33.390Z,0
2017-04-12T16:53:43.428Z,0
2017-04-12T16:54:54.028Z,0
2017-04-12T16:56:04.361Z,0
2017-04-12T16:57:14.727Z,0
2017-04-12T16:58:24.746Z,0
2017-04-12T16:59:35.110Z,0